sensor_id;sensor_type;location;lat;lon;timestamp;P1;durP1;ratioP1;P2;durP2;ratioP2
26211;SDS011;13951;49.516;6.094;2023-06-22T00:01:53;8.40;;;5.05;;
26211;SDS011;13951;49.516;6.094;2023-06-22T00:04:26;6.60;;;5.00;;
26211;SDS011;13951;49.516;6.094;2023-06-22T00:07:00;7.15;;;4.93;;
26211;SDS011;13951;49.516;6.094;2023-06-22T00:09:33;6.13;;;4.60;;
26211;SDS011;13951;49.516;6.094;2023-06-22T00:12:06;8.40;;;5.40;;
26211;SDS011;13951;49.516;6.094;2023-06-22T00:14:40;6.97;;;5.05;;
26211;SDS011;13951;49.516;6.094;2023-06-22T00:17:13;6.85;;;4.85;;
26211;SDS011;13951;49.516;6.094;2023-06-22T00:19:46;7.07;;;5.35;;
26211;SDS011;13951;49.516;6.094;2023-06-22T00:22:20;6.10;;;5.13;;
26211;SDS011;13951;49.516;6.094;2023-06-22T00:25:01;7.78;;;5.35;;
26211;SDS011;13951;49.516;6.094;2023-06-22T00:27:35;8.10;;;4.97;;
26211;SDS011;13951;49.516;6.094;2023-06-22T00:30:11;6.07;;;4.90;;
26211;SDS011;13951;49.516;6.094;2023-06-22T00:32:45;6.25;;;4.88;;
26211;SDS011;13951;49.516;6.094;2023-06-22T00:35:19;6.35;;;4.93;;
26211;SDS011;13951;49.516;6.094;2023-06-22T00:37:52;7.15;;;5.03;;
26211;SDS011;13951;49.516;6.094;2023-06-22T00:40:32;6.28;;;4.78;;
26211;SDS011;13951;49.516;6.094;2023-06-22T00:43:06;6.72;;;4.63;;
26211;SDS011;13951;49.516;6.094;2023-06-22T00:45:40;8.85;;;5.38;;
26211;SDS011;13951;49.516;6.094;2023-06-22T00:48:14;7.63;;;5.28;;
26211;SDS011;13951;49.516;6.094;2023-06-22T00:50:48;7.93;;;5.32;;
26211;SDS011;13951;49.516;6.094;2023-06-22T00:53:23;7.57;;;5.53;;
26211;SDS011;13951;49.516;6.094;2023-06-22T00:55:59;6.93;;;5.40;;
26211;SDS011;13951;49.516;6.094;2023-06-22T00:58:32;8.55;;;5.38;;
26211;SDS011;13951;49.516;6.094;2023-06-22T01:01:06;9.73;;;5.93;;
26211;SDS011;13951;49.516;6.094;2023-06-22T01:03:39;8.23;;;6.13;;
26211;SDS011;13951;49.516;6.094;2023-06-22T01:06:14;10.40;;;6.30;;
26211;SDS011;13951;49.516;6.094;2023-06-22T01:08:53;7.35;;;6.10;;
26211;SDS011;13951;49.516;6.094;2023-06-22T01:11:41;10.57;;;6.47;;
26211;SDS011;13951;49.516;6.094;2023-06-22T01:14:20;9.07;;;6.22;;
26211;SDS011;13951;49.516;6.094;2023-06-22T01:17:02;8.80;;;6.20;;
26211;SDS011;13951;49.516;6.094;2023-06-22T01:19:43;8.50;;;5.82;;
26211;SDS011;13951;49.516;6.094;2023-06-22T01:22:30;7.15;;;5.75;;
26211;SDS011;13951;49.516;6.094;2023-06-22T01:25:22;9.13;;;6.32;;
26211;SDS011;13951;49.516;6.094;2023-06-22T01:31:43;7.80;;;6.50;;
26211;SDS011;13951;49.516;6.094;2023-06-22T01:34:09;7.55;;;6.55;;
26211;SDS011;13951;49.516;6.094;2023-06-22T01:36:44;10.45;;;7.38;;
26211;SDS011;13951;49.516;6.094;2023-06-22T01:39:17;7.47;;;6.22;;
26211;SDS011;13951;49.516;6.094;2023-06-22T01:41:51;7.30;;;5.82;;
26211;SDS011;13951;49.516;6.094;2023-06-22T01:44:26;7.75;;;6.40;;
26211;SDS011;13951;49.516;6.094;2023-06-22T01:47:00;9.55;;;7.20;;
26211;SDS011;13951;49.516;6.094;2023-06-22T01:49:34;9.40;;;6.97;;
26211;SDS011;13951;49.516;6.094;2023-06-22T01:52:09;7.60;;;6.80;;
26211;SDS011;13951;49.516;6.094;2023-06-22T01:54:44;11.77;;;7.15;;
26211;SDS011;13951;49.516;6.094;2023-06-22T01:57:18;9.32;;;7.18;;
26211;SDS011;13951;49.516;6.094;2023-06-22T02:02:36;10.15;;;8.25;;
26211;SDS011;13951;49.516;6.094;2023-06-22T02:05:46;8.25;;;7.18;;
26211;SDS011;13951;49.516;6.094;2023-06-22T02:08:40;8.85;;;7.95;;
26211;SDS011;13951;49.516;6.094;2023-06-22T02:11:18;13.10;;;8.13;;
26211;SDS011;13951;49.516;6.094;2023-06-22T02:13:55;11.27;;;8.55;;
26211;SDS011;13951;49.516;6.094;2023-06-22T02:16:30;11.75;;;8.60;;
26211;SDS011;13951;49.516;6.094;2023-06-22T02:19:04;9.98;;;8.32;;
26211;SDS011;13951;49.516;6.094;2023-06-22T02:21:39;16.85;;;8.73;;
26211;SDS011;13951;49.516;6.094;2023-06-22T02:24:12;12.40;;;8.85;;
26211;SDS011;13951;49.516;6.094;2023-06-22T02:26:45;10.07;;;8.40;;
26211;SDS011;13951;49.516;6.094;2023-06-22T02:29:18;12.45;;;9.25;;
26211;SDS011;13951;49.516;6.094;2023-06-22T02:31:51;9.18;;;8.13;;
26211;SDS011;13951;49.516;6.094;2023-06-22T02:34:24;10.25;;;8.30;;
26211;SDS011;13951;49.516;6.094;2023-06-22T02:36:57;10.93;;;8.80;;
26211;SDS011;13951;49.516;6.094;2023-06-22T02:39:31;12.55;;;8.85;;
26211;SDS011;13951;49.516;6.094;2023-06-22T02:42:04;10.40;;;8.52;;
26211;SDS011;13951;49.516;6.094;2023-06-22T02:44:37;11.73;;;8.57;;
26211;SDS011;13951;49.516;6.094;2023-06-22T02:47:10;11.07;;;8.70;;
26211;SDS011;13951;49.516;6.094;2023-06-22T02:49:45;9.60;;;8.60;;
26211;SDS011;13951;49.516;6.094;2023-06-22T02:52:19;11.50;;;8.57;;
26211;SDS011;13951;49.516;6.094;2023-06-22T02:54:53;9.18;;;7.90;;
26211;SDS011;13951;49.516;6.094;2023-06-22T02:57:26;10.38;;;7.97;;
26211;SDS011;13951;49.516;6.094;2023-06-22T03:00:01;10.27;;;8.00;;
26211;SDS011;13951;49.516;6.094;2023-06-22T03:02:35;9.02;;;7.30;;
26211;SDS011;13951;49.516;6.094;2023-06-22T03:05:12;10.85;;;7.78;;
26211;SDS011;13951;49.516;6.094;2023-06-22T03:07:46;10.50;;;8.73;;
26211;SDS011;13951;49.516;6.094;2023-06-22T03:10:19;8.20;;;7.30;;
26211;SDS011;13951;49.516;6.094;2023-06-22T03:12:52;9.10;;;7.70;;
26211;SDS011;13951;49.516;6.094;2023-06-22T03:15:25;8.50;;;7.63;;
26211;SDS011;13951;49.516;6.094;2023-06-22T03:18:01;9.90;;;7.78;;
26211;SDS011;13951;49.516;6.094;2023-06-22T03:20:35;9.93;;;7.82;;
26211;SDS011;13951;49.516;6.094;2023-06-22T03:23:08;9.55;;;8.15;;
26211;SDS011;13951;49.516;6.094;2023-06-22T03:25:44;11.40;;;8.45;;
26211;SDS011;13951;49.516;6.094;2023-06-22T03:28:18;10.07;;;7.97;;
26211;SDS011;13951;49.516;6.094;2023-06-22T03:30:51;11.38;;;7.63;;
26211;SDS011;13951;49.516;6.094;2023-06-22T03:33:24;9.38;;;7.93;;
26211;SDS011;13951;49.516;6.094;2023-06-22T03:35:57;13.35;;;8.45;;
26211;SDS011;13951;49.516;6.094;2023-06-22T03:38:30;10.02;;;8.20;;
26211;SDS011;13951;49.516;6.094;2023-06-22T03:41:04;12.13;;;8.75;;
26211;SDS011;13951;49.516;6.094;2023-06-22T03:43:37;11.88;;;8.65;;
26211;SDS011;13951;49.516;6.094;2023-06-22T03:46:10;9.55;;;8.00;;
26211;SDS011;13951;49.516;6.094;2023-06-22T03:48:43;12.07;;;8.70;;
26211;SDS011;13951;49.516;6.094;2023-06-22T03:51:16;11.20;;;8.82;;
26211;SDS011;13951;49.516;6.094;2023-06-22T03:53:50;10.15;;;8.60;;
26211;SDS011;13951;49.516;6.094;2023-06-22T03:56:23;11.60;;;8.65;;
26211;SDS011;13951;49.516;6.094;2023-06-22T03:58:56;10.77;;;8.80;;
26211;SDS011;13951;49.516;6.094;2023-06-22T04:01:29;12.52;;;9.10;;
26211;SDS011;13951;49.516;6.094;2023-06-22T04:04:02;12.15;;;9.13;;
26211;SDS011;13951;49.516;6.094;2023-06-22T04:06:36;10.30;;;8.85;;
26211;SDS011;13951;49.516;6.094;2023-06-22T04:09:09;12.23;;;9.10;;
26211;SDS011;13951;49.516;6.094;2023-06-22T04:11:42;10.02;;;8.38;;
26211;SDS011;13951;49.516;6.094;2023-06-22T04:14:15;10.60;;;8.43;;
26211;SDS011;13951;49.516;6.094;2023-06-22T04:16:48;10.60;;;8.73;;
26211;SDS011;13951;49.516;6.094;2023-06-22T04:19:21;11.00;;;8.80;;
26211;SDS011;13951;49.516;6.094;2023-06-22T04:21:55;12.77;;;9.25;;
26211;SDS011;13951;49.516;6.094;2023-06-22T04:24:29;10.77;;;9.30;;
26211;SDS011;13951;49.516;6.094;2023-06-22T04:27:02;10.00;;;8.63;;
26211;SDS011;13951;49.516;6.094;2023-06-22T04:29:35;11.32;;;9.93;;
26211;SDS011;13951;49.516;6.094;2023-06-22T04:32:09;14.85;;;9.52;;
26211;SDS011;13951;49.516;6.094;2023-06-22T04:34:45;12.30;;;9.43;;
26211;SDS011;13951;49.516;6.094;2023-06-22T04:37:18;12.35;;;10.40;;
26211;SDS011;13951;49.516;6.094;2023-06-22T04:39:51;13.05;;;10.35;;
26211;SDS011;13951;49.516;6.094;2023-06-22T04:42:27;14.68;;;10.48;;
26211;SDS011;13951;49.516;6.094;2023-06-22T04:45:01;13.23;;;10.23;;
26211;SDS011;13951;49.516;6.094;2023-06-22T04:47:39;13.25;;;10.50;;
26211;SDS011;13951;49.516;6.094;2023-06-22T04:50:12;12.43;;;9.98;;
26211;SDS011;13951;49.516;6.094;2023-06-22T04:52:45;15.93;;;10.93;;
26211;SDS011;13951;49.516;6.094;2023-06-22T04:55:19;13.38;;;10.30;;
26211;SDS011;13951;49.516;6.094;2023-06-22T04:57:53;14.15;;;10.80;;
26211;SDS011;13951;49.516;6.094;2023-06-22T05:00:29;14.13;;;10.73;;
26211;SDS011;13951;49.516;6.094;2023-06-22T05:03:16;13.82;;;9.65;;
26211;SDS011;13951;49.516;6.094;2023-06-22T05:05:52;11.40;;;9.15;;
26211;SDS011;13951;49.516;6.094;2023-06-22T05:08:26;10.63;;;9.07;;
26211;SDS011;13951;49.516;6.094;2023-06-22T05:11:01;10.13;;;8.70;;
26211;SDS011;13951;49.516;6.094;2023-06-22T05:13:37;12.85;;;9.20;;
26211;SDS011;13951;49.516;6.094;2023-06-22T05:16:10;11.55;;;8.70;;
26211;SDS011;13951;49.516;6.094;2023-06-22T05:18:44;13.48;;;9.07;;
26211;SDS011;13951;49.516;6.094;2023-06-22T05:21:17;9.93;;;8.50;;
26211;SDS011;13951;49.516;6.094;2023-06-22T05:23:51;10.80;;;8.38;;
26211;SDS011;13951;49.516;6.094;2023-06-22T05:26:25;10.57;;;7.95;;
26211;SDS011;13951;49.516;6.094;2023-06-22T05:28:59;11.48;;;8.15;;
26211;SDS011;13951;49.516;6.094;2023-06-22T05:31:33;10.52;;;8.45;;
26211;SDS011;13951;49.516;6.094;2023-06-22T05:34:07;10.13;;;8.60;;
26211;SDS011;13951;49.516;6.094;2023-06-22T05:36:40;11.18;;;8.98;;
26211;SDS011;13951;49.516;6.094;2023-06-22T05:39:16;10.07;;;8.32;;
26211;SDS011;13951;49.516;6.094;2023-06-22T05:41:50;9.45;;;8.05;;
26211;SDS011;13951;49.516;6.094;2023-06-22T05:44:23;12.63;;;8.38;;
26211;SDS011;13951;49.516;6.094;2023-06-22T05:46:56;10.80;;;8.13;;
26211;SDS011;13951;49.516;6.094;2023-06-22T05:49:30;9.65;;;8.02;;
26211;SDS011;13951;49.516;6.094;2023-06-22T05:52:05;11.45;;;7.60;;
26211;SDS011;13951;49.516;6.094;2023-06-22T05:54:38;10.98;;;7.82;;
26211;SDS011;13951;49.516;6.094;2023-06-22T05:57:14;10.48;;;7.82;;
26211;SDS011;13951;49.516;6.094;2023-06-22T05:59:47;9.35;;;7.70;;
26211;SDS011;13951;49.516;6.094;2023-06-22T06:02:21;10.15;;;7.45;;
26211;SDS011;13951;49.516;6.094;2023-06-22T06:04:54;8.88;;;7.97;;
26211;SDS011;13951;49.516;6.094;2023-06-22T06:07:28;10.68;;;7.15;;
26211;SDS011;13951;49.516;6.094;2023-06-22T06:10:02;9.38;;;7.97;;
26211;SDS011;13951;49.516;6.094;2023-06-22T06:12:36;10.60;;;7.95;;
26211;SDS011;13951;49.516;6.094;2023-06-22T06:15:10;9.25;;;7.63;;
26211;SDS011;13951;49.516;6.094;2023-06-22T06:17:47;8.85;;;6.63;;
26211;SDS011;13951;49.516;6.094;2023-06-22T06:20:25;8.73;;;6.95;;
26211;SDS011;13951;49.516;6.094;2023-06-22T06:23:01;9.73;;;7.28;;
26211;SDS011;13951;49.516;6.094;2023-06-22T06:25:34;9.73;;;6.88;;
26211;SDS011;13951;49.516;6.094;2023-06-22T06:28:07;8.18;;;7.07;;
26211;SDS011;13951;49.516;6.094;2023-06-22T06:30:40;8.10;;;7.05;;
26211;SDS011;13951;49.516;6.094;2023-06-22T06:33:13;8.90;;;7.47;;
26211;SDS011;13951;49.516;6.094;2023-06-22T06:35:47;12.88;;;7.15;;
26211;SDS011;13951;49.516;6.094;2023-06-22T06:38:20;10.60;;;7.03;;
26211;SDS011;13951;49.516;6.094;2023-06-22T06:40:53;8.15;;;7.20;;
26211;SDS011;13951;49.516;6.094;2023-06-22T06:43:26;7.82;;;6.85;;
26211;SDS011;13951;49.516;6.094;2023-06-22T06:45:59;8.25;;;7.03;;
26211;SDS011;13951;49.516;6.094;2023-06-22T06:48:33;9.55;;;7.38;;
26211;SDS011;13951;49.516;6.094;2023-06-22T06:51:06;7.75;;;6.53;;
26211;SDS011;13951;49.516;6.094;2023-06-22T06:53:41;8.30;;;6.53;;
26211;SDS011;13951;49.516;6.094;2023-06-22T06:56:16;8.07;;;6.65;;
26211;SDS011;13951;49.516;6.094;2023-06-22T06:58:50;9.20;;;7.00;;
26211;SDS011;13951;49.516;6.094;2023-06-22T07:01:23;7.53;;;6.70;;
26211;SDS011;13951;49.516;6.094;2023-06-22T07:03:57;8.43;;;6.22;;
26211;SDS011;13951;49.516;6.094;2023-06-22T07:06:30;10.93;;;6.65;;
26211;SDS011;13951;49.516;6.094;2023-06-22T07:09:05;7.75;;;6.60;;
26211;SDS011;13951;49.516;6.094;2023-06-22T07:11:39;7.75;;;6.25;;
26211;SDS011;13951;49.516;6.094;2023-06-22T07:14:12;7.32;;;6.43;;
26211;SDS011;13951;49.516;6.094;2023-06-22T07:16:46;7.80;;;6.50;;
26211;SDS011;13951;49.516;6.094;2023-06-22T07:19:25;8.25;;;6.13;;
26211;SDS011;13951;49.516;6.094;2023-06-22T07:21:59;9.90;;;6.43;;
26211;SDS011;13951;49.516;6.094;2023-06-22T07:24:32;7.55;;;5.72;;
26211;SDS011;13951;49.516;6.094;2023-06-22T07:27:06;7.47;;;5.95;;
26211;SDS011;13951;49.516;6.094;2023-06-22T07:29:39;9.75;;;6.13;;
26211;SDS011;13951;49.516;6.094;2023-06-22T07:32:14;6.63;;;5.38;;
26211;SDS011;13951;49.516;6.094;2023-06-22T07:34:48;6.35;;;5.63;;
26211;SDS011;13951;49.516;6.094;2023-06-22T07:37:21;7.65;;;6.25;;
26211;SDS011;13951;49.516;6.094;2023-06-22T07:39:54;6.53;;;5.93;;
26211;SDS011;13951;49.516;6.094;2023-06-22T07:42:30;8.10;;;6.47;;
26211;SDS011;13951;49.516;6.094;2023-06-22T07:45:05;6.82;;;5.57;;
26211;SDS011;13951;49.516;6.094;2023-06-22T07:47:41;7.93;;;5.93;;
26211;SDS011;13951;49.516;6.094;2023-06-22T07:50:14;9.25;;;6.00;;
26211;SDS011;13951;49.516;6.094;2023-06-22T07:52:47;8.23;;;5.78;;
26211;SDS011;13951;49.516;6.094;2023-06-22T07:55:20;6.32;;;5.38;;
26211;SDS011;13951;49.516;6.094;2023-06-22T07:57:53;9.82;;;5.55;;
26211;SDS011;13951;49.516;6.094;2023-06-22T08:00:26;8.00;;;6.90;;
26211;SDS011;13951;49.516;6.094;2023-06-22T08:02:59;7.22;;;6.05;;
26211;SDS011;13951;49.516;6.094;2023-06-22T08:05:36;6.25;;;5.60;;
26211;SDS011;13951;49.516;6.094;2023-06-22T08:08:09;6.55;;;5.85;;
26211;SDS011;13951;49.516;6.094;2023-06-22T08:10:42;7.43;;;6.35;;
26211;SDS011;13951;49.516;6.094;2023-06-22T08:13:15;7.15;;;6.10;;
26211;SDS011;13951;49.516;6.094;2023-06-22T08:15:48;8.43;;;6.15;;
26211;SDS011;13951;49.516;6.094;2023-06-22T08:18:21;7.88;;;6.25;;
26211;SDS011;13951;49.516;6.094;2023-06-22T08:20:55;9.48;;;6.60;;
26211;SDS011;13951;49.516;6.094;2023-06-22T08:23:28;6.97;;;6.28;;
26211;SDS011;13951;49.516;6.094;2023-06-22T08:26:01;9.57;;;6.50;;
26211;SDS011;13951;49.516;6.094;2023-06-22T08:28:34;10.93;;;7.63;;
26211;SDS011;13951;49.516;6.094;2023-06-22T08:31:07;13.15;;;7.07;;
26211;SDS011;13951;49.516;6.094;2023-06-22T08:33:41;16.35;;;7.70;;
26211;SDS011;13951;49.516;6.094;2023-06-22T08:36:21;11.80;;;8.10;;
26211;SDS011;13951;49.516;6.094;2023-06-22T08:38:54;11.30;;;8.15;;
26211;SDS011;13951;49.516;6.094;2023-06-22T08:41:30;11.43;;;8.88;;
26211;SDS011;13951;49.516;6.094;2023-06-22T08:44:03;11.48;;;8.85;;
26211;SDS011;13951;49.516;6.094;2023-06-22T08:46:36;12.18;;;8.85;;
26211;SDS011;13951;49.516;6.094;2023-06-22T08:49:11;13.43;;;9.27;;
26211;SDS011;13951;49.516;6.094;2023-06-22T08:51:44;12.07;;;9.65;;
26211;SDS011;13951;49.516;6.094;2023-06-22T08:54:21;11.65;;;9.55;;
26211;SDS011;13951;49.516;6.094;2023-06-22T08:56:54;11.98;;;9.73;;
26211;SDS011;13951;49.516;6.094;2023-06-22T08:59:27;12.82;;;9.30;;
26211;SDS011;13951;49.516;6.094;2023-06-22T09:02:00;13.88;;;9.27;;
26211;SDS011;13951;49.516;6.094;2023-06-22T09:04:33;11.25;;;9.00;;
26211;SDS011;13951;49.516;6.094;2023-06-22T09:07:07;19.55;;;10.27;;
26211;SDS011;13951;49.516;6.094;2023-06-22T09:09:40;12.90;;;9.95;;
26211;SDS011;13951;49.516;6.094;2023-06-22T09:12:13;11.90;;;9.70;;
26211;SDS011;13951;49.516;6.094;2023-06-22T09:14:46;12.90;;;10.15;;
26211;SDS011;13951;49.516;6.094;2023-06-22T09:17:21;12.98;;;10.38;;
26211;SDS011;13951;49.516;6.094;2023-06-22T09:19:55;12.63;;;9.95;;
26211;SDS011;13951;49.516;6.094;2023-06-22T09:22:28;12.27;;;10.40;;
26211;SDS011;13951;49.516;6.094;2023-06-22T09:25:01;13.77;;;11.07;;
26211;SDS011;13951;49.516;6.094;2023-06-22T09:27:39;14.45;;;11.35;;
26211;SDS011;13951;49.516;6.094;2023-06-22T09:30:12;14.38;;;10.75;;
26211;SDS011;13951;49.516;6.094;2023-06-22T09:32:45;17.17;;;11.55;;
26211;SDS011;13951;49.516;6.094;2023-06-22T09:35:18;14.05;;;11.18;;
26211;SDS011;13951;49.516;6.094;2023-06-22T09:37:54;13.98;;;10.57;;
26211;SDS011;13951;49.516;6.094;2023-06-22T09:40:27;15.65;;;11.95;;
26211;SDS011;13951;49.516;6.094;2023-06-22T09:43:01;15.38;;;11.50;;
26211;SDS011;13951;49.516;6.094;2023-06-22T09:45:35;13.50;;;11.07;;
26211;SDS011;13951;49.516;6.094;2023-06-22T09:48:08;17.35;;;10.85;;
26211;SDS011;13951;49.516;6.094;2023-06-22T09:50:45;15.52;;;11.82;;
26211;SDS011;13951;49.516;6.094;2023-06-22T09:53:19;19.30;;;12.15;;
26211;SDS011;13951;49.516;6.094;2023-06-22T09:55:52;17.40;;;12.02;;
26211;SDS011;13951;49.516;6.094;2023-06-22T09:58:25;14.80;;;11.48;;
26211;SDS011;13951;49.516;6.094;2023-06-22T10:00:58;13.85;;;11.15;;
26211;SDS011;13951;49.516;6.094;2023-06-22T10:03:31;15.43;;;10.05;;
26211;SDS011;13951;49.516;6.094;2023-06-22T10:06:05;14.73;;;10.55;;
26211;SDS011;13951;49.516;6.094;2023-06-22T10:08:38;13.10;;;9.88;;
26211;SDS011;13951;49.516;6.094;2023-06-22T10:11:13;14.90;;;10.20;;
26211;SDS011;13951;49.516;6.094;2023-06-22T10:13:49;11.70;;;8.73;;
26211;SDS011;13951;49.516;6.094;2023-06-22T10:16:24;11.57;;;9.07;;
26211;SDS011;13951;49.516;6.094;2023-06-22T10:19:02;13.15;;;9.15;;
26211;SDS011;13951;49.516;6.094;2023-06-22T10:21:35;10.75;;;9.32;;
26211;SDS011;13951;49.516;6.094;2023-06-22T10:24:08;13.40;;;9.93;;
26211;SDS011;13951;49.516;6.094;2023-06-22T10:26:43;11.27;;;9.70;;
26211;SDS011;13951;49.516;6.094;2023-06-22T10:29:16;13.20;;;10.70;;
26211;SDS011;13951;49.516;6.094;2023-06-22T10:31:49;14.48;;;10.65;;
26211;SDS011;13951;49.516;6.094;2023-06-22T10:34:22;14.95;;;12.07;;
26211;SDS011;13951;49.516;6.094;2023-06-22T10:36:55;10.90;;;8.93;;
26211;SDS011;13951;49.516;6.094;2023-06-22T10:39:28;10.70;;;9.30;;
26211;SDS011;13951;49.516;6.094;2023-06-22T10:42:02;10.38;;;8.70;;
26211;SDS011;13951;49.516;6.094;2023-06-22T10:44:35;9.82;;;8.00;;
26211;SDS011;13951;49.516;6.094;2023-06-22T10:47:09;8.68;;;7.75;;
26211;SDS011;13951;49.516;6.094;2023-06-22T10:49:43;10.77;;;8.60;;
26211;SDS011;13951;49.516;6.094;2023-06-22T10:52:16;11.82;;;9.13;;
26211;SDS011;13951;49.516;6.094;2023-06-22T10:54:50;8.98;;;7.85;;
26211;SDS011;13951;49.516;6.094;2023-06-22T10:57:24;11.00;;;9.27;;
26211;SDS011;13951;49.516;6.094;2023-06-22T10:59:57;10.43;;;8.02;;
26211;SDS011;13951;49.516;6.094;2023-06-22T11:02:32;10.02;;;7.88;;
26211;SDS011;13951;49.516;6.094;2023-06-22T11:05:06;10.63;;;8.52;;
26211;SDS011;13951;49.516;6.094;2023-06-22T11:07:43;9.75;;;7.95;;
26211;SDS011;13951;49.516;6.094;2023-06-22T11:10:18;9.68;;;7.43;;
26211;SDS011;13951;49.516;6.094;2023-06-22T11:12:51;9.48;;;7.03;;
26211;SDS011;13951;49.516;6.094;2023-06-22T11:15:25;10.55;;;7.43;;
26211;SDS011;13951;49.516;6.094;2023-06-22T11:17:58;8.63;;;7.03;;
26211;SDS011;13951;49.516;6.094;2023-06-22T11:20:31;9.52;;;7.35;;
26211;SDS011;13951;49.516;6.094;2023-06-22T11:23:07;12.05;;;8.00;;
26211;SDS011;13951;49.516;6.094;2023-06-22T11:25:40;9.05;;;7.72;;
26211;SDS011;13951;49.516;6.094;2023-06-22T11:28:14;8.75;;;6.78;;
26211;SDS011;13951;49.516;6.094;2023-06-22T11:30:48;9.27;;;7.00;;
26211;SDS011;13951;49.516;6.094;2023-06-22T11:33:23;7.05;;;6.30;;
26211;SDS011;13951;49.516;6.094;2023-06-22T11:35:56;7.95;;;6.65;;
26211;SDS011;13951;49.516;6.094;2023-06-22T11:38:30;9.75;;;6.22;;
26211;SDS011;13951;49.516;6.094;2023-06-22T11:41:03;9.23;;;6.38;;
26211;SDS011;13951;49.516;6.094;2023-06-22T11:43:36;8.05;;;6.22;;
26211;SDS011;13951;49.516;6.094;2023-06-22T11:46:09;7.65;;;6.38;;
26211;SDS011;13951;49.516;6.094;2023-06-22T11:48:43;7.97;;;6.30;;
26211;SDS011;13951;49.516;6.094;2023-06-22T11:51:16;8.88;;;6.10;;
26211;SDS011;13951;49.516;6.094;2023-06-22T11:53:49;7.78;;;6.57;;
26211;SDS011;13951;49.516;6.094;2023-06-22T11:56:23;7.70;;;6.25;;
26211;SDS011;13951;49.516;6.094;2023-06-22T11:58:56;9.45;;;6.95;;
26211;SDS011;13951;49.516;6.094;2023-06-22T12:01:29;9.13;;;6.38;;
26211;SDS011;13951;49.516;6.094;2023-06-22T12:04:03;8.15;;;6.25;;
26211;SDS011;13951;49.516;6.094;2023-06-22T12:06:38;7.22;;;6.32;;
26211;SDS011;13951;49.516;6.094;2023-06-22T12:09:14;9.27;;;6.85;;
26211;SDS011;13951;49.516;6.094;2023-06-22T12:11:47;6.90;;;6.20;;
26211;SDS011;13951;49.516;6.094;2023-06-22T12:14:20;7.85;;;6.50;;
26211;SDS011;13951;49.516;6.094;2023-06-22T12:16:54;10.05;;;7.20;;
26211;SDS011;13951;49.516;6.094;2023-06-22T12:19:27;8.43;;;5.57;;
26211;SDS011;13951;49.516;6.094;2023-06-22T12:22:00;10.07;;;6.30;;
26211;SDS011;13951;49.516;6.094;2023-06-22T12:24:33;10.05;;;7.13;;
26211;SDS011;13951;49.516;6.094;2023-06-22T12:27:08;8.38;;;6.22;;
26211;SDS011;13951;49.516;6.094;2023-06-22T12:29:46;7.43;;;6.10;;
26211;SDS011;13951;49.516;6.094;2023-06-22T12:32:20;6.70;;;5.47;;
26211;SDS011;13951;49.516;6.094;2023-06-22T12:34:53;8.23;;;5.93;;
26211;SDS011;13951;49.516;6.094;2023-06-22T12:37:27;7.07;;;5.57;;
26211;SDS011;13951;49.516;6.094;2023-06-22T12:40:01;8.02;;;5.30;;
26211;SDS011;13951;49.516;6.094;2023-06-22T12:42:36;7.72;;;5.80;;
26211;SDS011;13951;49.516;6.094;2023-06-22T12:45:09;7.47;;;5.85;;
26211;SDS011;13951;49.516;6.094;2023-06-22T12:47:43;8.75;;;6.38;;
26211;SDS011;13951;49.516;6.094;2023-06-22T12:50:16;8.27;;;6.53;;
26211;SDS011;13951;49.516;6.094;2023-06-22T12:52:49;8.95;;;7.20;;
26211;SDS011;13951;49.516;6.094;2023-06-22T12:55:22;9.68;;;6.95;;
26211;SDS011;13951;49.516;6.094;2023-06-22T12:57:55;9.75;;;6.75;;
26211;SDS011;13951;49.516;6.094;2023-06-22T13:00:30;11.23;;;6.15;;
26211;SDS011;13951;49.516;6.094;2023-06-22T13:03:04;13.50;;;6.65;;
26211;SDS011;13951;49.516;6.094;2023-06-22T13:05:37;12.32;;;7.07;;
26211;SDS011;13951;49.516;6.094;2023-06-22T13:08:11;13.57;;;7.13;;
26211;SDS011;13951;49.516;6.094;2023-06-22T13:10:44;12.48;;;6.63;;
26211;SDS011;13951;49.516;6.094;2023-06-22T13:13:17;13.73;;;7.20;;
26211;SDS011;13951;49.516;6.094;2023-06-22T13:15:50;9.38;;;6.63;;
26211;SDS011;13951;49.516;6.094;2023-06-22T13:18:26;8.73;;;5.40;;
26211;SDS011;13951;49.516;6.094;2023-06-22T13:20:59;5.38;;;4.22;;
26211;SDS011;13951;49.516;6.094;2023-06-22T13:23:32;6.65;;;3.38;;
26211;SDS011;13951;49.516;6.094;2023-06-22T13:26:07;6.05;;;3.65;;
26211;SDS011;13951;49.516;6.094;2023-06-22T13:28:40;6.78;;;3.58;;
26211;SDS011;13951;49.516;6.094;2023-06-22T13:31:13;4.80;;;2.92;;
26211;SDS011;13951;49.516;6.094;2023-06-22T13:33:46;3.67;;;2.50;;
26211;SDS011;13951;49.516;6.094;2023-06-22T13:36:20;5.30;;;2.40;;
26211;SDS011;13951;49.516;6.094;2023-06-22T13:38:55;5.03;;;2.67;;
26211;SDS011;13951;49.516;6.094;2023-06-22T13:41:29;4.22;;;2.90;;
26211;SDS011;13951;49.516;6.094;2023-06-22T13:44:02;4.28;;;2.85;;
26211;SDS011;13951;49.516;6.094;2023-06-22T13:46:35;4.22;;;2.42;;
26211;SDS011;13951;49.516;6.094;2023-06-22T13:49:09;4.38;;;2.30;;
26211;SDS011;13951;49.516;6.094;2023-06-22T13:51:42;6.03;;;2.90;;
26211;SDS011;13951;49.516;6.094;2023-06-22T13:54:15;5.00;;;2.70;;
26211;SDS011;13951;49.516;6.094;2023-06-22T13:57:01;5.60;;;3.10;;
26211;SDS011;13951;49.516;6.094;2023-06-22T13:59:34;6.05;;;2.60;;
26211;SDS011;13951;49.516;6.094;2023-06-22T14:02:07;4.45;;;2.88;;
26211;SDS011;13951;49.516;6.094;2023-06-22T14:04:41;6.03;;;2.83;;
26211;SDS011;13951;49.516;6.094;2023-06-22T14:07:14;4.35;;;2.55;;
26211;SDS011;13951;49.516;6.094;2023-06-22T14:09:47;6.45;;;2.85;;
26211;SDS011;13951;49.516;6.094;2023-06-22T14:12:20;5.05;;;2.70;;
26211;SDS011;13951;49.516;6.094;2023-06-22T14:14:53;3.90;;;2.50;;
26211;SDS011;13951;49.516;6.094;2023-06-22T14:17:26;3.35;;;2.50;;
26211;SDS011;13951;49.516;6.094;2023-06-22T14:20:00;7.05;;;2.60;;
26211;SDS011;13951;49.516;6.094;2023-06-22T14:22:33;10.07;;;6.60;;
26211;SDS011;13951;49.516;6.094;2023-06-22T14:25:07;12.80;;;6.72;;
26211;SDS011;13951;49.516;6.094;2023-06-22T14:27:41;4.18;;;3.08;;
26211;SDS011;13951;49.516;6.094;2023-06-22T14:30:14;4.97;;;2.83;;
26211;SDS011;13951;49.516;6.094;2023-06-22T14:32:48;4.53;;;2.85;;
26211;SDS011;13951;49.516;6.094;2023-06-22T14:35:21;6.90;;;2.60;;
26211;SDS011;13951;49.516;6.094;2023-06-22T14:37:56;2.53;;;2.13;;
26211;SDS011;13951;49.516;6.094;2023-06-22T14:40:29;3.90;;;1.65;;
26211;SDS011;13951;49.516;6.094;2023-06-22T14:43:15;1.83;;;1.40;;
26211;SDS011;13951;49.516;6.094;2023-06-22T14:45:48;0.90;;;0.80;;
26211;SDS011;13951;49.516;6.094;2023-06-22T14:48:24;2.45;;;0.82;;
26211;SDS011;13951;49.516;6.094;2023-06-22T14:50:59;1.60;;;0.95;;
26211;SDS011;13951;49.516;6.094;2023-06-22T14:53:32;2.22;;;0.88;;
26211;SDS011;13951;49.516;6.094;2023-06-22T14:56:06;3.75;;;0.88;;
26211;SDS011;13951;49.516;6.094;2023-06-22T14:58:40;2.05;;;1.00;;
26211;SDS011;13951;49.516;6.094;2023-06-22T15:01:13;1.48;;;1.10;;
26211;SDS011;13951;49.516;6.094;2023-06-22T15:03:47;0.80;;;0.80;;
26211;SDS011;13951;49.516;6.094;2023-06-22T15:06:21;1.67;;;0.90;;
26211;SDS011;13951;49.516;6.094;2023-06-22T15:08:54;1.25;;;0.90;;
26211;SDS011;13951;49.516;6.094;2023-06-22T15:11:28;0.80;;;0.80;;
26211;SDS011;13951;49.516;6.094;2023-06-22T15:14:01;0.90;;;0.85;;
26211;SDS011;13951;49.516;6.094;2023-06-22T15:16:35;0.80;;;0.80;;
26211;SDS011;13951;49.516;6.094;2023-06-22T15:19:08;1.98;;;0.80;;
26211;SDS011;13951;49.516;6.094;2023-06-22T15:21:42;1.13;;;0.70;;
26211;SDS011;13951;49.516;6.094;2023-06-22T15:24:16;1.45;;;0.70;;
26211;SDS011;13951;49.516;6.094;2023-06-22T15:26:49;2.33;;;0.73;;
26211;SDS011;13951;49.516;6.094;2023-06-22T15:29:23;0.60;;;0.60;;